Terminal Aerodrome Forecast
Issued by NWS La Crosse, WI

Home | Current Version | Previous Version | Text Only | Print | Product List | Glossary On
Versions: 1 2 3 4 5 6 7 8 9 10 11 12 13 14 15 16 17 18 19 20 21 22 23 24 25 26 27 28 29 30 31 32 33
000
FTUS43 KARX 292010 AAB
TAFRST
TAF AMD
KRST 292010Z 2920/3018 30028G39KT P6SM BKN015
     FM292100 30025G35KT P6SM SCT015
     FM300000 31016KT P6SM SKC
     FM300500 28009KT P6SM SKC
     FM301100 25007KT P6SM BKN200
     FM301400 23007KT P6SM BKN060=

USA.gov is the U.S. government's official web portal to all federal, state and local government web resources and services.